createdAt,value
2018-08-19T00:02:26.420Z,20.90
2018-08-19T00:05:07.209Z,20.76
2018-08-19T00:07:36.253Z,20.78
2018-08-19T00:10:06.857Z,20.71
2018-08-19T00:12:38.866Z,20.70
2018-08-19T00:15:09.959Z,20.74
2018-08-19T00:17:39.894Z,20.70
2018-08-19T00:20:11.636Z,20.63
2018-08-19T00:22:41.761Z,20.60
2018-08-19T00:25:14.203Z,20.57
2018-08-19T00:27:44.172Z,20.53
2018-08-19T00:30:13.330Z,20.53
2018-08-19T00:32:42.579Z,20.53
2018-08-19T00:35:13.837Z,20.49
2018-08-19T00:37:43.289Z,20.46
2018-08-19T00:40:13.200Z,20.44
2018-08-19T00:42:44.257Z,20.45
2018-08-19T00:45:14.039Z,20.45
2018-08-19T00:47:43.596Z,20.44
2018-08-19T00:50:13.332Z,20.40
2018-08-19T00:52:43.656Z,20.36
2018-08-19T00:55:14.221Z,20.24
2018-08-19T00:57:48.668Z,20.20
2018-08-19T01:00:19.235Z,20.14
2018-08-19T01:02:54.891Z,20.09
2018-08-19T01:05:26.759Z,20.06
2018-08-19T01:07:57.892Z,19.98
2018-08-19T01:10:29.339Z,19.98
2018-08-19T01:13:01.030Z,19.94
2018-08-19T01:15:30.694Z,19.89
2018-08-19T01:18:03.212Z,19.89
2018-08-19T01:20:32.454Z,19.89
2018-08-19T01:23:02.425Z,19.86
2018-08-19T01:25:32.266Z,19.81
2018-08-19T01:28:01.953Z,19.79
2018-08-19T01:30:32.680Z,19.76
2018-08-19T01:33:03.256Z,19.73
2018-08-19T01:35:40.561Z,19.71
2018-08-19T01:38:11.969Z,19.66
2018-08-19T01:40:41.264Z,19.69
2018-08-19T01:43:12.045Z,19.67
2018-08-19T01:45:41.879Z,19.60
2018-08-19T01:48:13.556Z,19.53
2018-08-19T01:50:43.398Z,19.48
2018-08-19T01:53:13.626Z,19.42
2018-08-19T01:55:46.946Z,19.32
2018-08-19T01:58:19.052Z,19.31
2018-08-19T02:00:50.254Z,19.30
2018-08-19T02:03:21.638Z,19.28
2018-08-19T02:05:52.547Z,19.31
2018-08-19T02:08:23.060Z,19.27
2018-08-19T02:10:54.906Z,19.28
2018-08-19T02:13:26.337Z,19.27
2018-08-19T02:15:56.441Z,19.29
2018-08-19T02:18:26.070Z,19.31
2018-08-19T02:20:56.575Z,19.27
2018-08-19T02:23:30.406Z,19.26
2018-08-19T02:26:01.264Z,19.18
2018-08-19T02:28:31.436Z,19.17
2018-08-19T02:31:03.144Z,19.14
2018-08-19T02:33:35.254Z,19.12
2018-08-19T02:36:10.611Z,19.09
2018-08-19T02:38:42.297Z,19.12
2018-08-19T02:41:11.137Z,19.17
2018-08-19T02:43:50.020Z,19.16
2018-08-19T02:46:20.138Z,19.21
2018-08-19T02:48:52.908Z,19.14
2018-08-19T02:51:21.796Z,19.12
2018-08-19T02:53:52.601Z,19.07
2018-08-19T02:56:26.713Z,19.03
2018-08-19T02:58:55.896Z,18.99
2018-08-19T03:01:26.963Z,18.97
2018-08-19T03:03:57.614Z,18.94
2018-08-19T03:06:27.686Z,18.94
2018-08-19T03:09:01.607Z,18.86
2018-08-19T03:11:32.614Z,18.84
2018-08-19T03:14:02.402Z,18.83
2018-08-19T03:16:35.373Z,18.65
2018-08-19T03:19:07.607Z,18.61
2018-08-19T03:21:40.803Z,18.60
2018-08-19T03:24:12.909Z,18.64
2018-08-19T03:26:45.505Z,18.59
2018-08-19T03:29:21.995Z,18.63
2018-08-19T03:32:00.750Z,18.62
2018-08-19T03:34:36.072Z,18.66
2018-08-19T03:37:08.279Z,18.59
2018-08-19T03:39:38.639Z,18.56
2018-08-19T03:42:11.166Z,18.47
2018-08-19T03:44:40.966Z,18.43
2018-08-19T03:47:26.743Z,18.42
2018-08-19T03:50:00.460Z,18.42
2018-08-19T03:52:32.272Z,18.47
2018-08-19T03:55:09.805Z,18.46
2018-08-19T03:57:42.041Z,18.44
2018-08-19T04:00:15.117Z,18.38
2018-08-19T04:02:46.593Z,18.41
2018-08-19T04:05:21.667Z,18.42
2018-08-19T04:07:53.980Z,18.48
2018-08-19T04:10:25.270Z,18.45
2018-08-19T04:12:59.259Z,18.39
2018-08-19T04:15:28.880Z,18.40
2018-08-19T04:18:00.112Z,18.33
2018-08-19T04:20:31.095Z,18.31
2018-08-19T04:23:02.500Z,18.24
2018-08-19T04:25:38.418Z,18.26
2018-08-19T04:28:10.449Z,18.25
2018-08-19T04:30:40.256Z,18.23
2018-08-19T04:33:11.194Z,18.15
2018-08-19T04:35:42.286Z,18.18
2018-08-19T04:38:13.492Z,18.15
2018-08-19T04:40:42.907Z,18.15
2018-08-19T04:43:12.186Z,18.14
2018-08-19T04:45:41.735Z,18.15
2018-08-19T04:48:10.796Z,18.14
2018-08-19T04:50:41.245Z,18.13
2018-08-19T04:53:10.896Z,18.14
2018-08-19T04:55:41.132Z,18.14
2018-08-19T04:58:10.780Z,18.17
2018-08-19T05:00:41.090Z,18.23
2018-08-19T05:03:10.880Z,18.20
2018-08-19T05:05:43.067Z,18.26
2018-08-19T05:08:14.645Z,18.31
2018-08-19T05:10:46.438Z,18.37
2018-08-19T05:13:16.643Z,18.43
2018-08-19T05:15:46.391Z,18.47
2018-08-19T05:18:17.849Z,18.45
2018-08-19T05:20:47.232Z,18.50
2018-08-19T05:23:18.152Z,18.48
2018-08-19T05:25:58.708Z,18.56
2018-08-19T05:28:34.099Z,18.57
2018-08-19T05:31:04.845Z,18.50
2018-08-19T05:33:33.805Z,18.55
2018-08-19T05:36:03.157Z,18.64
2018-08-19T05:38:37.016Z,18.71
2018-08-19T05:41:10.893Z,18.79
2018-08-19T05:43:42.756Z,18.83
2018-08-19T05:46:13.278Z,18.92
2018-08-19T05:48:44.063Z,18.95
2018-08-19T05:51:15.773Z,19.02
2018-08-19T05:53:50.484Z,19.07
2018-08-19T05:56:21.114Z,19.13
2018-08-19T05:58:56.169Z,19.16
2018-08-19T06:01:29.911Z,19.25
2018-08-19T06:04:02.673Z,19.24
2018-08-19T06:06:33.008Z,19.28
2018-08-19T06:09:01.958Z,19.34
2018-08-19T06:11:31.597Z,19.44
2018-08-19T06:14:00.530Z,19.47
2018-08-19T06:16:29.000Z,19.45
2018-08-19T06:18:57.412Z,19.42
2018-08-19T06:21:25.936Z,19.37
2018-08-19T06:23:54.456Z,19.38
2018-08-19T06:26:27.106Z,19.36
2018-08-19T06:28:55.751Z,19.40
2018-08-19T06:31:24.254Z,19.50
2018-08-19T06:33:52.751Z,19.60
2018-08-19T06:36:21.808Z,19.70
2018-08-19T06:38:50.459Z,19.79
2018-08-19T06:41:19.563Z,19.82
2018-08-19T06:43:48.043Z,19.92
2018-08-19T06:46:16.500Z,19.96
2018-08-19T06:48:45.088Z,19.98
2018-08-19T06:51:14.340Z,19.99
2018-08-19T06:53:42.890Z,19.99
2018-08-19T06:56:11.388Z,20.06
2018-08-19T06:58:40.120Z,20.10
2018-08-19T07:01:13.540Z,20.15
2018-08-19T07:03:46.472Z,20.32
2018-08-19T07:06:15.302Z,20.52
2018-08-19T07:08:43.978Z,20.71
2018-08-19T07:11:13.157Z,20.91
2018-08-19T07:13:41.750Z,21.04
2018-08-19T07:16:10.270Z,21.20
2018-08-19T07:18:39.883Z,21.37
2018-08-19T07:21:08.432Z,21.42
2018-08-19T07:23:36.966Z,21.42
2018-08-19T07:26:05.529Z,21.44
2018-08-19T07:28:34.880Z,21.43
2018-08-19T07:31:03.453Z,21.46
2018-08-19T07:33:32.133Z,21.45
2018-08-19T07:36:01.422Z,21.48
2018-08-19T07:38:29.908Z,21.50
2018-08-19T07:40:59.555Z,21.52
2018-08-19T07:43:28.325Z,21.58
2018-08-19T07:45:56.982Z,21.59
2018-08-19T07:48:26.366Z,21.64
2018-08-19T07:50:54.847Z,21.69
2018-08-19T07:53:23.311Z,21.69
2018-08-19T07:55:51.754Z,21.79
2018-08-19T07:58:33.046Z,21.86
2018-08-19T08:01:01.524Z,21.91
2018-08-19T08:03:29.953Z,22.01
2018-08-19T08:05:58.490Z,22.02
2018-08-19T08:08:27.124Z,21.97
2018-08-19T08:10:56.482Z,21.91
2018-08-19T08:13:25.176Z,21.96
2018-08-19T08:15:55.440Z,22.04
2018-08-19T08:18:27.648Z,22.12
2018-08-19T08:21:07.908Z,22.19
2018-08-19T08:23:40.297Z,22.24
2018-08-19T08:26:15.151Z,22.27
2018-08-19T08:28:55.364Z,22.33
2018-08-19T08:31:25.227Z,22.36
2018-08-19T08:33:58.851Z,22.33
2018-08-19T08:36:30.542Z,22.35
2018-08-19T08:39:01.302Z,22.46
2018-08-19T08:41:31.622Z,22.51
2018-08-19T08:44:04.927Z,22.57
2018-08-19T08:46:35.852Z,22.55
2018-08-19T08:49:07.857Z,22.63
2018-08-19T08:51:36.337Z,22.69
2018-08-19T08:54:04.797Z,22.80
2018-08-19T08:56:34.931Z,22.91
2018-08-19T08:59:04.653Z,22.95
2018-08-19T09:01:37.733Z,22.96
2018-08-19T09:04:06.528Z,23.00
2018-08-19T09:06:36.589Z,23.09
2018-08-19T09:09:07.608Z,23.13
2018-08-19T09:11:36.288Z,23.17
2018-08-19T09:14:06.381Z,23.23
2018-08-19T09:16:35.044Z,23.30
2018-08-19T09:19:04.305Z,23.34
2018-08-19T09:21:33.378Z,23.37
2018-08-19T09:24:03.985Z,23.46
2018-08-19T09:26:34.872Z,23.56
2018-08-19T09:29:04.372Z,23.60
2018-08-19T09:31:33.378Z,23.67
2018-08-19T09:34:01.889Z,23.76
2018-08-19T09:36:30.499Z,23.82
2018-08-19T09:39:01.225Z,23.87
2018-08-19T09:41:29.734Z,23.95
2018-08-19T09:43:58.171Z,24.01
2018-08-19T09:46:28.060Z,24.06
2018-08-19T09:48:56.502Z,24.11
2018-08-19T09:51:28.133Z,24.14
2018-08-19T09:53:58.173Z,24.17
2018-08-19T09:56:43.685Z,24.25
2018-08-19T09:59:13.050Z,24.32
2018-08-19T10:01:45.910Z,24.39
2018-08-19T10:04:19.031Z,24.48
2018-08-19T10:06:51.402Z,24.51
2018-08-19T10:09:19.959Z,24.57
2018-08-19T10:11:48.489Z,24.61
2018-08-19T10:14:17.857Z,24.68
2018-08-19T10:16:47.763Z,24.74
2018-08-19T10:19:17.325Z,24.77
2018-08-19T10:21:45.906Z,24.84
2018-08-19T10:24:32.061Z,24.89
2018-08-19T10:27:01.076Z,24.98
2018-08-19T10:29:30.117Z,25.04
2018-08-19T10:32:00.860Z,25.09
2018-08-19T10:34:32.720Z,25.18
2018-08-19T10:37:02.298Z,25.25
2018-08-19T10:39:30.914Z,25.26
2018-08-19T10:42:19.257Z,25.31
2018-08-19T10:44:51.038Z,25.34
2018-08-19T10:47:20.498Z,25.35
2018-08-19T10:49:55.396Z,25.34
2018-08-19T10:52:30.464Z,25.41
2018-08-19T10:55:00.201Z,25.48
2018-08-19T10:57:29.116Z,25.54
2018-08-19T10:59:59.571Z,25.60
2018-08-19T11:02:28.191Z,25.68
2018-08-19T11:05:00.472Z,25.76
2018-08-19T11:07:31.129Z,25.82
2018-08-19T11:10:19.998Z,25.88
2018-08-19T11:12:51.721Z,25.92
2018-08-19T11:15:32.166Z,25.99
2018-08-19T11:18:13.479Z,26.06
2018-08-19T11:20:42.103Z,26.16
2018-08-19T11:23:16.746Z,26.23
2018-08-19T11:25:45.957Z,26.31
2018-08-19T11:28:25.675Z,26.37
2018-08-19T11:31:23.728Z,26.46
2018-08-19T11:33:54.797Z,26.55
2018-08-19T11:36:30.568Z,26.62
2018-08-19T11:38:59.228Z,26.73
2018-08-19T11:41:34.165Z,26.80
2018-08-19T11:44:10.394Z,26.98
2018-08-19T11:46:39.050Z,27.05
2018-08-19T11:49:18.112Z,27.09
2018-08-19T11:52:02.840Z,27.17
2018-08-19T11:54:32.380Z,27.25
2018-08-19T11:57:08.115Z,27.34
2018-08-19T11:59:41.887Z,27.45
2018-08-19T12:02:15.736Z,27.44
2018-08-19T12:04:48.225Z,27.47
2018-08-19T12:07:18.418Z,27.54
2018-08-19T12:10:00.264Z,27.56
2018-08-19T12:12:51.533Z,27.60
2018-08-19T12:15:20.097Z,27.69
2018-08-19T12:17:49.880Z,27.76
2018-08-19T12:20:23.097Z,27.85
2018-08-19T12:22:52.514Z,27.97
2018-08-19T12:25:21.075Z,28.07
2018-08-19T12:27:49.703Z,28.16
2018-08-19T12:30:18.880Z,28.25
2018-08-19T12:32:47.565Z,28.31
2018-08-19T12:35:17.590Z,28.40
2018-08-19T12:37:50.828Z,28.56
2018-08-19T12:40:20.151Z,28.45
2018-08-19T12:42:54.038Z,28.54
2018-08-19T12:45:23.927Z,28.62
2018-08-19T12:47:52.359Z,28.73
2018-08-19T12:50:22.751Z,28.76
2018-08-19T12:52:51.335Z,28.80
2018-08-19T12:55:19.834Z,28.81
2018-08-19T12:57:53.572Z,28.82
2018-08-19T13:00:29.646Z,28.93
2018-08-19T13:02:58.233Z,28.99
2018-08-19T13:05:27.078Z,29.07
2018-08-19T13:07:55.689Z,29.14
2018-08-19T13:10:24.549Z,29.24
2018-08-19T13:12:55.215Z,29.33
2018-08-19T13:15:25.076Z,29.42
2018-08-19T13:17:53.949Z,29.45
2018-08-19T13:20:22.776Z,29.45
2018-08-19T13:22:57.872Z,29.53
2018-08-19T13:25:26.279Z,29.62
2018-08-19T13:27:56.061Z,29.72
2018-08-19T13:30:24.983Z,29.70
2018-08-19T13:32:53.843Z,29.65
2018-08-19T13:35:22.392Z,29.53
2018-08-19T13:37:52.085Z,29.51
2018-08-19T13:40:22.281Z,29.55
2018-08-19T13:42:51.768Z,29.68
2018-08-19T13:45:21.371Z,29.83
2018-08-19T13:47:53.402Z,29.85
2018-08-19T13:50:23.074Z,30.00
2018-08-19T13:52:52.281Z,29.90
2018-08-19T13:55:21.772Z,30.10
2018-08-19T13:57:50.434Z,30.23
2018-08-19T14:00:23.508Z,30.37
2018-08-19T14:02:58.405Z,30.40
2018-08-19T14:05:26.998Z,30.16
2018-08-19T14:07:56.549Z,30.28
2018-08-19T14:10:25.236Z,30.37
2018-08-19T14:12:53.789Z,30.51
2018-08-19T14:15:22.235Z,30.62
2018-08-19T14:17:51.367Z,30.53
2018-08-19T14:20:20.056Z,30.51
2018-08-19T14:22:49.324Z,30.54
2018-08-19T14:25:18.945Z,30.67
2018-08-19T14:27:48.541Z,30.71
2018-08-19T14:30:22.238Z,30.81
2018-08-19T14:32:51.545Z,30.78
2018-08-19T14:35:21.155Z,30.67
2018-08-19T14:37:52.934Z,30.64
2018-08-19T14:40:22.529Z,30.63
2018-08-19T14:42:51.845Z,30.65
2018-08-19T14:45:21.028Z,30.79
2018-08-19T14:47:52.518Z,30.77
2018-08-19T14:50:21.285Z,30.69
2018-08-19T14:52:50.940Z,30.75
2018-08-19T14:55:21.414Z,30.84
2018-08-19T14:57:51.734Z,30.88
2018-08-19T15:00:20.975Z,30.93
2018-08-19T15:02:49.448Z,30.92
2018-08-19T15:05:19.823Z,30.95
2018-08-19T15:07:49.107Z,30.84
2018-08-19T15:10:20.252Z,30.87
2018-08-19T15:12:48.912Z,30.88
2018-08-19T15:15:18.142Z,30.70
2018-08-19T15:17:51.930Z,30.80
2018-08-19T15:20:27.016Z,30.89
2018-08-19T15:23:05.535Z,30.95
2018-08-19T15:25:34.191Z,30.98
2018-08-19T15:28:02.984Z,30.95
2018-08-19T15:30:31.494Z,31.08
2018-08-19T15:33:02.715Z,31.15
2018-08-19T15:35:32.674Z,31.16
2018-08-19T15:38:02.073Z,31.01
2018-08-19T15:40:38.368Z,30.91
2018-08-19T15:43:10.184Z,30.84
2018-08-19T15:45:39.140Z,30.69
2018-08-19T15:48:09.652Z,30.38
2018-08-19T15:50:38.348Z,30.38
2018-08-19T15:53:09.070Z,30.44
2018-08-19T15:55:39.847Z,30.48
2018-08-19T15:58:08.683Z,30.42
2018-08-19T16:00:40.043Z,30.67
2018-08-19T16:03:10.302Z,30.93
2018-08-19T16:05:39.816Z,30.89
2018-08-19T16:08:08.600Z,30.78
2018-08-19T16:10:38.166Z,30.58
2018-08-19T16:13:09.834Z,30.38
2018-08-19T16:15:38.977Z,30.01
2018-08-19T16:18:08.410Z,29.92
2018-08-19T16:20:37.968Z,29.70
2018-08-19T16:23:07.189Z,29.58
2018-08-19T16:25:35.822Z,29.54
2018-08-19T16:28:05.000Z,29.40
2018-08-19T16:30:33.461Z,29.40
2018-08-19T16:33:02.237Z,29.34
2018-08-19T16:35:30.844Z,29.27
2018-08-19T16:38:00.296Z,29.24
2018-08-19T16:40:29.783Z,29.19
2018-08-19T16:42:58.711Z,29.19
2018-08-19T16:45:27.363Z,29.12
2018-08-19T16:47:55.893Z,29.04
2018-08-19T16:50:24.642Z,29.00
2018-08-19T16:52:54.007Z,28.78
2018-08-19T16:55:22.974Z,28.68
2018-08-19T17:00:59.356Z,28.53
2018-08-19T17:03:35.684Z,28.44
2018-08-19T17:06:06.677Z,28.36
2018-08-19T17:08:35.216Z,28.29
2018-08-19T17:11:04.601Z,28.21
2018-08-19T17:13:34.337Z,28.17
2018-08-19T17:16:06.286Z,28.14
2018-08-19T17:18:36.422Z,28.08
2018-08-19T17:21:05.337Z,28.03
2018-08-19T17:23:34.456Z,27.96
2018-08-19T17:26:11.858Z,27.86
2018-08-19T17:28:40.846Z,27.75
2018-08-19T17:31:09.472Z,27.65
2018-08-19T17:33:39.971Z,27.63
2018-08-19T17:36:09.613Z,27.59
2018-08-19T17:38:38.638Z,27.55
2018-08-19T17:41:08.901Z,27.43
2018-08-19T17:43:41.482Z,27.36
2018-08-19T17:46:12.592Z,27.33
2018-08-19T17:48:43.205Z,27.31
2018-08-19T17:51:24.205Z,27.23
2018-08-19T17:53:52.736Z,27.17
2018-08-19T17:56:21.260Z,27.13
2018-08-19T17:58:50.438Z,27.09
2018-08-19T18:01:20.560Z,26.97
2018-08-19T18:03:49.704Z,26.88
2018-08-19T18:06:19.204Z,26.85
2018-08-19T18:08:50.589Z,26.81
2018-08-19T18:11:20.036Z,26.78
2018-08-19T18:13:49.378Z,26.72
2018-08-19T18:16:18.192Z,26.64
2018-08-19T18:18:48.596Z,26.56
2018-08-19T18:21:18.004Z,26.52
2018-08-19T18:23:48.489Z,26.46
2018-08-19T18:26:17.404Z,26.38
2018-08-19T18:28:48.216Z,26.33
2018-08-19T18:31:22.706Z,26.28
2018-08-19T18:34:01.180Z,26.20
2018-08-19T18:36:33.667Z,26.10
2018-08-19T18:39:03.227Z,26.08
2018-08-19T18:41:37.031Z,26.03
2018-08-19T18:44:08.663Z,26.02
2018-08-19T18:46:39.383Z,25.99
2018-08-19T18:49:13.283Z,25.93
2018-08-19T18:51:43.448Z,25.87
2018-08-19T18:54:26.201Z,25.78
2018-08-19T18:56:55.731Z,25.74
2018-08-19T18:59:24.290Z,25.72
2018-08-19T19:01:55.720Z,25.65
2018-08-19T19:04:25.761Z,25.65
2018-08-19T19:06:54.970Z,25.57
2018-08-19T19:09:23.470Z,25.51
2018-08-19T19:11:53.365Z,25.45
2018-08-19T19:14:22.893Z,25.40
2018-08-19T19:16:54.248Z,25.37
2018-08-19T19:19:24.335Z,25.33
2018-08-19T19:22:01.738Z,25.31
2018-08-19T19:24:37.320Z,25.29
2018-08-19T19:27:10.329Z,25.22
2018-08-19T19:29:41.257Z,25.16
2018-08-19T19:32:23.282Z,25.16
2018-08-19T19:34:55.253Z,25.10
2018-08-19T19:37:23.861Z,25.08
2018-08-19T19:39:58.149Z,25.09
2018-08-19T19:42:26.890Z,25.09
2018-08-19T19:44:55.535Z,25.06
2018-08-19T19:47:24.190Z,25.05
2018-08-19T19:49:56.925Z,25.04
2018-08-19T19:52:26.279Z,24.98
2018-08-19T19:54:55.391Z,24.87
2018-08-19T19:57:25.185Z,24.88
2018-08-19T19:59:54.222Z,24.86
2018-08-19T20:02:27.991Z,24.82
2018-08-19T20:04:56.474Z,24.76
2018-08-19T20:07:25.238Z,24.74
2018-08-19T20:09:54.622Z,24.69
2018-08-19T20:12:29.584Z,24.66
2018-08-19T20:15:01.149Z,24.64
2018-08-19T20:17:29.719Z,24.59
2018-08-19T20:19:58.228Z,24.57
2018-08-19T20:22:27.153Z,24.47
2018-08-19T20:24:55.698Z,24.45
2018-08-19T20:27:25.065Z,24.46
2018-08-19T20:29:55.210Z,24.42
2018-08-19T20:32:24.107Z,24.32
2018-08-19T20:34:52.665Z,24.30
2018-08-19T20:37:24.875Z,24.31
2018-08-19T20:39:55.544Z,24.32
2018-08-19T20:42:24.260Z,24.25
2018-08-19T20:44:53.047Z,24.15
2018-08-19T20:47:21.596Z,24.12
2018-08-19T20:49:51.721Z,24.04
2018-08-19T20:52:31.059Z,23.90
2018-08-19T20:55:00.147Z,23.85
2018-08-19T20:57:28.630Z,23.83
2018-08-19T20:59:57.193Z,23.84
2018-08-19T21:02:25.808Z,23.79
2018-08-19T21:04:55.023Z,23.80
2018-08-19T21:07:24.396Z,23.73
2018-08-19T21:09:52.993Z,23.68
2018-08-19T21:12:21.513Z,23.62
2018-08-19T21:14:50.026Z,23.61
2018-08-19T21:17:18.494Z,23.62
2018-08-19T21:19:46.982Z,23.62
2018-08-19T21:22:15.517Z,23.52
2018-08-19T21:24:44.019Z,23.47
2018-08-19T21:27:13.929Z,23.43
2018-08-19T21:29:42.996Z,23.38
2018-08-19T21:32:11.942Z,23.35
2018-08-19T21:34:40.628Z,23.27
2018-08-19T21:37:09.070Z,23.27
2018-08-19T21:39:38.144Z,23.23
2018-08-19T21:42:06.728Z,23.18
2018-08-19T21:44:35.808Z,23.11
2018-08-19T21:47:06.642Z,23.04
2018-08-19T21:49:35.205Z,23.02
2018-08-19T21:52:04.085Z,23.00
2018-08-19T21:54:32.773Z,22.97
2018-08-19T21:57:01.257Z,22.89
2018-08-19T21:59:30.728Z,22.82
2018-08-19T22:02:00.173Z,22.77
2018-08-19T22:04:31.025Z,22.75
2018-08-19T22:07:00.171Z,22.69
2018-08-19T22:09:36.025Z,22.65
2018-08-19T22:12:06.003Z,22.63
2018-08-19T22:14:34.629Z,22.56
2018-08-19T22:17:06.117Z,22.54
2018-08-19T22:19:34.586Z,22.59
2018-08-19T22:22:03.927Z,22.64
2018-08-19T22:24:33.691Z,22.63
2018-08-19T22:27:19.392Z,22.64
2018-08-19T22:29:49.735Z,22.69
2018-08-19T22:32:18.844Z,22.68
2018-08-19T22:34:47.292Z,22.62
2018-08-19T22:37:16.248Z,22.57
2018-08-19T22:39:46.036Z,22.53
2018-08-19T22:42:15.536Z,22.56
2018-08-19T22:44:44.887Z,22.60
2018-08-19T22:47:13.455Z,22.60
2018-08-19T22:49:41.983Z,22.57
2018-08-19T22:52:21.229Z,22.56
2018-08-19T22:54:52.384Z,22.53
2018-08-19T22:57:21.008Z,22.50
2018-08-19T22:59:49.416Z,22.49
2018-08-19T23:02:18.696Z,22.40
2018-08-19T23:04:47.846Z,22.36
2018-08-19T23:07:16.473Z,22.29
2018-08-19T23:09:45.080Z,22.28
2018-08-19T23:12:14.498Z,22.23
2018-08-19T23:14:54.119Z,22.20
2018-08-19T23:17:22.720Z,22.13
2018-08-19T23:19:54.011Z,22.19
2018-08-19T23:22:22.549Z,22.21
2018-08-19T23:24:52.849Z,22.21
2018-08-19T23:27:22.029Z,22.19
2018-08-19T23:29:51.494Z,22.13
2018-08-19T23:32:20.158Z,22.17
2018-08-19T23:34:48.643Z,22.21
2018-08-19T23:37:17.995Z,22.29
2018-08-19T23:39:46.682Z,22.38
2018-08-19T23:42:15.120Z,22.40
2018-08-19T23:44:43.717Z,22.39
2018-08-19T23:47:12.911Z,22.38
2018-08-19T23:49:41.897Z,22.46
2018-08-19T23:52:10.415Z,22.48
2018-08-19T23:54:38.950Z,22.54
2018-08-19T23:57:07.461Z,22.52
2018-08-19T23:59:37.560Z,22.55
